CDT,Max TemperatureF,Mean TemperatureF,Min TemperatureF,Max Dew PointF,MeanDew PointF,Min DewpointF,Max Humidity, Mean Humidity, Min Humidity, Max Sea Level PressureIn, Mean Sea Level PressureIn, Min Sea Level PressureIn, Max VisibilityMiles, Mean VisibilityMiles, Min VisibilityMiles, Max Wind SpeedMPH, Mean Wind SpeedMPH, Max Gust SpeedMPH,PrecipitationIn, CloudCover, Events, WindDirDegrees
2010-10-1,69,56,42,48,45,41,100,77,40,30.15,30.10,30.06,10,10,5,18,3,26,0.00,3,Rain,338
2010-10-2,53,44,35,43,36,30,100,74,41,30.45,30.38,30.24,10,10,4,16,7,23,0.00,1,,11
2010-10-3,59,44,28,37,32,28,100,72,33,30.47,30.42,30.33,10,9,4,9,1,,0.00,0,,170
2010-10-4,64,47,30,37,34,30,100,65,34,30.38,30.33,30.26,10,9,3,13,3,17,0.00,0,,178
2010-10-5,73,53,33,45,39,32,100,66,33,30.29,30.25,30.17,10,9,5,12,3,21,0.00,0,,167
2010-10-6,69,61,53,52,44,34,77,57,27,30.17,30.13,30.09,10,10,7,15,6,21,0.00,0,,287
2010-10-7,73,55,37,43,38,36,93,59,25,30.18,30.14,30.06,10,10,3,9,4,,0.00,0,,262
2010-10-8,84,66,48,55,47,36,82,52,35,30.03,29.93,29.86,10,9,2,9,3,,0.00,0,,215
2010-10-9,84,67,50,57,53,48,100,68,35,29.95,29.90,29.88,10,10,7,8,2,,0.00,0,,78
2010-10-10,77,62,46,57,51,45,100,72,41,29.92,29.88,29.82,10,10,5,7,1,,0.00,0,,309
2010-10-11,77,62,46,57,52,46,100,78,44,29.87,29.84,29.82,10,8,0,6,1,,0.00,0,Fog,8
2010-10-12,69,58,48,55,51,45,100,76,55,30.06,29.94,29.88,10,10,7,17,4,24,0.00,0,,287
2010-10-13,64,52,41,39,35,30,87,57,30,30.23,30.19,30.14,10,10,10,15,7,21,0.00,0,,287
2010-10-14,66,52,39,36,34,32,81,50,32,30.17,30.00,29.85,10,10,7,22,7,31,0.00,0,,263
2010-10-15,59,47,35,39,36,34,93,65,42,30.16,30.09,30.01,10,10,4,8,4,,0.00,0,,270
2010-10-16,64,52,39,39,34,28,87,55,27,30.12,29.99,29.87,10,10,7,17,5,23,0.00,0,,284
2010-10-17,55,45,35,41,33,23,93,66,33,30.20,30.16,30.11,10,10,7,12,5,,0.06,2,Rain,284
2010-10-18,51,45,39,39,36,34,93,70,50,30.16,30.11,30.03,10,10,10,9,4,,0.00,4,Rain,325
2010-10-19,57,46,35,39,36,34,100,74,41,30.02,29.96,29.83,10,10,10,10,3,,0.00,0,,244
2010-10-20,66,54,42,37,33,21,76,53,28,29.85,29.74,29.64,10,10,10,28,11,39,0.00,1,,271
2010-10-21,51,42,33,30,28,27,81,59,38,30.06,29.99,29.89,10,10,7,15,8,18,0.00,0,,291
2010-10-22,66,46,26,39,32,25,93,59,30,30.03,29.93,29.83,10,9,5,16,4,23,0.00,0,,176
2010-10-23,64,55,46,57,50,39,100,83,67,29.84,29.79,29.75,10,9,5,9,2,,0.00,5,Rain,86
2010-10-24,59,55,51,57,54,52,100,96,88,29.74,29.61,29.55,10,6,2,12,8,,0.38,8,Rain-Thunderstorm,188
2010-10-25,59,54,50,55,52,48,100,94,82,29.50,29.35,29.14,10,7,2,17,4,22,0.01,6,Rain,141
2010-10-26,60,48,37,59,45,36,100,90,71,28.94,28.76,28.65,10,8,2,34,17,46,0.39,8,Rain,227
2010-10-27,41,37,33,37,33,27,100,85,65,29.69,29.27,29.03,10,7,2,32,23,47,0.02,8,Rain-Snow,254
2010-10-28,39,36,30,34,29,27,87,77,65,30.31,30.13,29.82,10,10,10,26,19,32,0.00,6,,288
2010-10-29,53,37,21,36,28,21,100,77,44,30.35,30.17,29.88,10,10,10,16,5,20,0.00,0,,184
2010-10-30,50,42,35,36,34,30,93,71,54,30.05,29.85,29.71,10,10,10,14,5,21,0.00,0,,305
2010-10-31,46,34,23,32,28,21,100,81,50,30.28,30.21,30.11,10,10,7,7,0,,0.00,0,,99